createdAt,value
2019-03-18T00:00:15.291Z,14.98
2019-03-18T00:02:45.017Z,15.23
2019-03-18T00:05:13.587Z,14.28
2019-03-18T00:07:41.969Z,14.87
2019-03-18T00:10:10.158Z,14.80
2019-03-18T00:12:38.315Z,15.30
2019-03-18T00:15:06.494Z,14.13
2019-03-18T00:17:34.974Z,14.87
2019-03-18T00:20:03.453Z,14.10
2019-03-18T00:22:31.736Z,13.30
2019-03-18T00:25:00.176Z,13.88
2019-03-18T00:27:28.389Z,13.20
2019-03-18T00:29:56.564Z,13.93
2019-03-18T00:32:24.636Z,13.88
2019-03-18T00:34:53.016Z,13.88
2019-03-18T00:37:21.398Z,13.35
2019-03-18T00:39:49.776Z,14.10
2019-03-18T00:42:18.459Z,13.75
2019-03-18T00:44:46.850Z,14.35
2019-03-18T00:47:17.684Z,13.78
2019-03-18T00:49:46.061Z,13.80
2019-03-18T00:52:14.542Z,12.43
2019-03-18T00:54:42.515Z,13.08
2019-03-18T00:57:11.203Z,14.50
2019-03-18T00:59:39.274Z,14.07
2019-03-18T01:02:07.757Z,13.22
2019-03-18T01:04:36.041Z,12.43
2019-03-18T01:07:04.619Z,12.73
2019-03-18T01:09:32.903Z,12.88
2019-03-18T01:12:00.968Z,13.00
2019-03-18T01:14:29.459Z,12.55
2019-03-18T01:16:57.736Z,12.80
2019-03-18T01:19:25.802Z,12.63
2019-03-18T01:21:54.487Z,12.60
2019-03-18T01:24:23.389Z,12.73
2019-03-18T01:26:51.656Z,13.55
2019-03-18T01:29:20.036Z,12.25
2019-03-18T01:31:48.315Z,12.65
2019-03-18T01:34:16.387Z,13.40
2019-03-18T01:36:44.973Z,13.50
2019-03-18T01:39:13.079Z,13.03
2019-03-18T01:41:41.526Z,12.80
2019-03-18T01:44:10.015Z,13.05
2019-03-18T01:46:38.797Z,13.15
2019-03-18T01:49:07.178Z,13.72
2019-03-18T01:51:35.456Z,12.45
2019-03-18T01:54:05.279Z,13.22
2019-03-18T01:56:33.344Z,12.55
2019-03-18T01:59:01.721Z,13.65
2019-03-18T02:01:30.002Z,12.73
2019-03-18T02:03:58.583Z,13.98
2019-03-18T02:06:26.656Z,13.43
2019-03-18T02:08:54.842Z,13.70
2019-03-18T02:11:23.313Z,14.73
2019-03-18T02:13:51.692Z,13.88
2019-03-18T02:16:20.174Z,14.98
2019-03-18T02:18:48.248Z,14.13
2019-03-18T02:21:16.835Z,14.38
2019-03-18T02:23:45.006Z,15.50
2019-03-18T02:26:13.700Z,15.95
2019-03-18T02:28:42.099Z,16.57
2019-03-18T02:31:10.148Z,16.52
2019-03-18T02:33:38.838Z,15.32
2019-03-18T02:36:06.670Z,15.45
2019-03-18T02:38:34.878Z,17.17
2019-03-18T02:41:03.472Z,16.80
2019-03-18T02:43:31.846Z,15.63
2019-03-18T02:46:09.995Z,15.40
2019-03-18T02:48:29.676Z,15.63
2019-03-18T02:50:57.698Z,17.07
2019-03-18T02:53:26.082Z,16.32
2019-03-18T02:55:54.590Z,16.02
2019-03-18T02:58:23.152Z,15.93
2019-03-18T03:00:51.636Z,16.35
2019-03-18T03:03:20.021Z,16.05
2019-03-18T03:05:48.293Z,15.93
2019-03-18T03:08:16.680Z,15.65
2019-03-18T03:10:44.846Z,16.10
2019-03-18T03:13:14.154Z,15.30
2019-03-18T03:15:42.759Z,15.65
2019-03-18T03:18:11.005Z,14.87
2019-03-18T03:20:39.179Z,15.23
2019-03-18T03:23:07.671Z,15.78
2019-03-18T03:25:35.837Z,14.58
2019-03-18T03:28:04.122Z,14.70
2019-03-18T03:30:32.903Z,15.50
2019-03-18T03:33:00.977Z,15.68
2019-03-18T03:35:29.374Z,15.10
2019-03-18T03:37:57.838Z,15.05
2019-03-18T03:40:26.420Z,15.32
2019-03-18T03:42:55.037Z,15.10
2019-03-18T03:45:23.386Z,16.32
2019-03-18T03:47:52.072Z,16.10
2019-03-18T03:50:20.390Z,16.15
2019-03-18T03:52:48.945Z,15.93
2019-03-18T03:55:20.403Z,16.25
2019-03-18T03:57:48.831Z,17.32
2019-03-18T04:00:17.259Z,16.97
2019-03-18T04:02:45.870Z,17.48
2019-03-18T04:05:14.115Z,17.52
2019-03-18T04:07:42.501Z,17.80
2019-03-18T04:10:11.397Z,17.12
2019-03-18T04:12:40.521Z,18.12
2019-03-18T04:15:08.857Z,18.65
2019-03-18T04:17:37.856Z,18.52
2019-03-18T04:20:06.733Z,17.90
2019-03-18T04:22:34.837Z,18.40
2019-03-18T04:25:03.403Z,19.37
2019-03-18T04:27:31.679Z,19.10
2019-03-18T04:29:59.965Z,20.17
2019-03-18T04:32:28.364Z,20.08
2019-03-18T04:34:56.616Z,19.98
2019-03-18T04:37:24.892Z,20.08
2019-03-18T04:39:52.967Z,20.52
2019-03-18T04:42:21.035Z,21.93
2019-03-18T04:44:49.185Z,21.73
2019-03-18T04:47:17.700Z,23.57
2019-03-18T04:49:45.766Z,23.27
2019-03-18T04:52:13.967Z,23.87
2019-03-18T04:54:42.218Z,24.20
2019-03-18T04:57:10.808Z,24.98
2019-03-18T04:59:39.082Z,29.50
2019-03-18T05:02:07.668Z,28.02
2019-03-18T05:04:36.966Z,27.80
2019-03-18T05:07:05.555Z,27.50
2019-03-18T05:09:34.246Z,30.80
2019-03-18T05:12:03.006Z,29.72
2019-03-18T05:14:34.179Z,30.20
2019-03-18T05:17:02.762Z,31.20
2019-03-18T05:19:31.288Z,30.57
2019-03-18T05:22:00.446Z,30.30
2019-03-18T05:24:28.819Z,30.68
2019-03-18T05:26:57.527Z,33.10
2019-03-18T05:29:25.577Z,30.95
2019-03-18T05:31:54.099Z,33.00
2019-03-18T05:34:22.647Z,33.05
2019-03-18T05:36:50.934Z,33.13
2019-03-18T05:39:19.099Z,32.75
2019-03-18T05:41:47.795Z,33.18
2019-03-18T05:44:16.171Z,34.78
2019-03-18T05:46:44.557Z,35.20
2019-03-18T05:49:13.025Z,33.63
2019-03-18T05:51:41.616Z,35.05
2019-03-18T05:54:10.808Z,35.17
2019-03-18T05:56:39.291Z,35.63
2019-03-18T05:59:07.496Z,35.05
2019-03-18T06:01:35.952Z,36.20
2019-03-18T06:04:04.434Z,38.30
2019-03-18T06:06:32.811Z,35.63
2019-03-18T06:09:00.996Z,38.78
2019-03-18T06:11:30.391Z,42.30
2019-03-18T06:13:58.565Z,39.78
2019-03-18T06:16:26.946Z,37.35
2019-03-18T06:18:55.542Z,40.15
2019-03-18T06:21:23.619Z,37.90
2019-03-18T06:23:51.990Z,40.17
2019-03-18T06:26:20.259Z,41.15
2019-03-18T06:28:48.334Z,40.35
2019-03-18T06:31:16.917Z,39.98
2019-03-18T06:33:45.298Z,41.33
2019-03-18T06:36:13.676Z,41.90
2019-03-18T06:38:41.852Z,41.08
2019-03-18T06:41:10.129Z,42.43
2019-03-18T06:43:38.714Z,42.08
2019-03-18T06:46:06.887Z,42.03
2019-03-18T06:48:35.575Z,42.43
2019-03-18T06:51:03.854Z,42.35
2019-03-18T06:53:32.247Z,42.15
2019-03-18T06:56:00.621Z,40.88
2019-03-18T06:58:29.005Z,41.77
2019-03-18T07:00:57.167Z,42.00
2019-03-18T07:03:25.755Z,41.23
2019-03-18T07:05:53.825Z,41.75
2019-03-18T07:08:22.205Z,40.67
2019-03-18T07:10:53.305Z,41.30
2019-03-18T07:13:20.310Z,39.25
2019-03-18T07:15:48.675Z,40.92
2019-03-18T07:18:18.443Z,40.92
2019-03-18T07:20:46.995Z,39.50
2019-03-18T07:23:15.351Z,39.03
2019-03-18T07:25:43.834Z,38.30
2019-03-18T07:28:11.909Z,39.98
2019-03-18T07:30:40.387Z,38.85
2019-03-18T07:33:08.783Z,39.98
2019-03-18T07:35:37.148Z,39.63
2019-03-18T07:38:05.527Z,39.10
2019-03-18T07:40:34.111Z,39.75
2019-03-18T07:43:02.183Z,38.28
2019-03-18T07:45:30.564Z,37.95
2019-03-18T07:47:58.953Z,37.20
2019-03-18T07:50:27.221Z,37.55
2019-03-18T07:52:55.908Z,36.38
2019-03-18T07:55:24.083Z,37.53
2019-03-18T07:57:52.567Z,37.63
2019-03-18T08:00:20.844Z,37.23
2019-03-18T08:02:49.428Z,34.78
2019-03-18T08:05:17.604Z,35.55
2019-03-18T08:07:45.633Z,34.40
2019-03-18T08:10:13.861Z,34.83
2019-03-18T08:12:41.935Z,34.35
2019-03-18T08:15:10.409Z,34.40
2019-03-18T08:17:38.891Z,34.75
2019-03-18T08:20:07.166Z,32.88
2019-03-18T08:22:35.648Z,32.95
2019-03-18T08:25:04.698Z,32.63
2019-03-18T08:27:32.921Z,32.83
2019-03-18T08:30:01.197Z,31.25
2019-03-18T08:32:29.986Z,31.97
2019-03-18T08:34:58.162Z,31.00
2019-03-18T08:37:26.451Z,31.45
2019-03-18T08:39:56.049Z,32.05
2019-03-18T08:42:24.130Z,30.90
2019-03-18T08:44:52.517Z,29.42
2019-03-18T08:47:20.780Z,29.48
2019-03-18T08:49:49.259Z,29.63
2019-03-18T08:52:17.433Z,28.40
2019-03-18T08:54:46.031Z,28.45
2019-03-18T08:57:14.653Z,27.82
2019-03-18T08:59:42.896Z,28.15
2019-03-18T09:02:11.163Z,28.38
2019-03-18T09:04:41.534Z,29.65
2019-03-18T09:07:09.351Z,29.30
2019-03-18T09:09:38.961Z,28.62
2019-03-18T09:12:07.447Z,30.23
2019-03-18T09:14:35.517Z,30.52
2019-03-18T09:17:03.998Z,31.90
2019-03-18T09:19:32.481Z,30.20
2019-03-18T09:22:00.970Z,29.72
2019-03-18T09:24:29.341Z,29.90
2019-03-18T09:27:02.661Z,29.40
2019-03-18T09:29:28.046Z,29.50
2019-03-18T09:31:56.535Z,30.10
2019-03-18T09:34:24.910Z,29.40
2019-03-18T09:36:53.501Z,29.45
2019-03-18T09:39:21.672Z,28.83
2019-03-18T09:41:50.158Z,30.30
2019-03-18T09:44:18.428Z,29.40
2019-03-18T09:46:46.604Z,29.50
2019-03-18T09:49:21.520Z,29.02
2019-03-18T09:51:44.493Z,31.07
2019-03-18T09:54:13.075Z,33.05
2019-03-18T09:56:41.658Z,30.52
2019-03-18T09:59:09.833Z,30.77
2019-03-18T10:01:38.319Z,31.02
2019-03-18T10:04:10.792Z,30.80
2019-03-18T10:06:39.068Z,31.05
2019-03-18T10:09:07.457Z,35.17
2019-03-18T10:11:35.932Z,33.70
2019-03-18T10:14:04.209Z,33.88
2019-03-18T10:16:32.589Z,34.55
2019-03-18T10:19:01.175Z,34.60
2019-03-18T10:21:29.041Z,33.88
2019-03-18T10:23:57.424Z,33.40
2019-03-18T10:26:25.804Z,35.68
2019-03-18T10:28:53.979Z,34.60
2019-03-18T10:31:22.458Z,33.02
2019-03-18T10:33:50.942Z,32.67
2019-03-18T10:36:19.626Z,32.10
2019-03-18T10:38:47.340Z,32.55
2019-03-18T10:41:15.465Z,31.73
2019-03-18T10:43:43.749Z,31.55
2019-03-18T10:46:12.125Z,32.28
2019-03-18T10:48:41.628Z,32.65
2019-03-18T10:51:09.716Z,31.02
2019-03-18T10:53:37.782Z,32.53
2019-03-18T10:56:07.947Z,30.05
2019-03-18T10:58:37.098Z,33.02
2019-03-18T11:01:05.475Z,31.00
2019-03-18T11:03:34.161Z,31.27
2019-03-18T11:06:02.336Z,31.90
2019-03-18T11:08:31.023Z,31.10
2019-03-18T11:10:59.095Z,31.05
2019-03-18T11:13:27.375Z,31.52
2019-03-18T11:15:55.656Z,31.27
2019-03-18T11:18:24.029Z,30.08
2019-03-18T11:20:52.411Z,31.35
2019-03-18T11:23:20.792Z,31.12
2019-03-18T11:25:49.272Z,31.77
2019-03-18T11:28:17.418Z,33.23
2019-03-18T11:30:45.417Z,32.95
2019-03-18T11:33:13.699Z,32.58
2019-03-18T11:35:42.282Z,33.53
2019-03-18T11:38:10.721Z,32.53
2019-03-18T11:40:39.149Z,31.93
2019-03-18T11:43:07.630Z,33.50
2019-03-18T11:45:36.018Z,32.30
2019-03-18T11:48:04.590Z,31.85
2019-03-18T11:50:33.377Z,31.97
2019-03-18T11:53:13.432Z,33.10
2019-03-18T11:55:31.471Z,33.08
2019-03-18T11:58:02.874Z,34.43
2019-03-18T12:00:30.383Z,33.85
2019-03-18T12:02:58.656Z,34.35
2019-03-18T12:05:27.038Z,40.08
2019-03-18T12:07:55.214Z,40.08
2019-03-18T12:10:25.719Z,42.83
2019-03-18T12:12:53.402Z,49.73
2019-03-18T12:15:22.090Z,50.95
2019-03-18T12:17:51.093Z,49.83
2019-03-18T12:20:24.666Z,50.50
2019-03-18T12:22:49.693Z,47.35
2019-03-18T12:25:18.069Z,45.78
2019-03-18T12:27:46.344Z,48.10
2019-03-18T12:30:15.052Z,47.50
2019-03-18T12:32:43.309Z,45.00
2019-03-18T12:35:11.691Z,47.15
2019-03-18T12:37:40.381Z,46.55
2019-03-18T12:40:09.476Z,47.38
2019-03-18T12:42:37.653Z,46.80
2019-03-18T12:45:08.690Z,47.80
2019-03-18T12:47:35.639Z,46.55
2019-03-18T12:50:03.812Z,46.15
2019-03-18T12:52:32.396Z,46.35
2019-03-18T12:55:00.881Z,46.37
2019-03-18T12:57:29.058Z,46.83
2019-03-18T12:59:58.799Z,47.00
2019-03-18T13:02:26.851Z,45.25
2019-03-18T13:04:55.531Z,46.05
2019-03-18T13:07:23.700Z,45.12
2019-03-18T13:09:52.089Z,44.98
2019-03-18T13:12:20.157Z,46.58
2019-03-18T13:14:48.846Z,45.55
2019-03-18T13:17:17.013Z,47.93
2019-03-18T13:19:45.297Z,45.40
2019-03-18T13:22:13.568Z,46.35
2019-03-18T13:24:41.951Z,44.75
2019-03-18T13:27:10.031Z,43.87
2019-03-18T13:29:38.504Z,44.27
2019-03-18T13:32:06.784Z,44.15
2019-03-18T13:34:35.160Z,44.63
2019-03-18T13:37:03.747Z,42.53
2019-03-18T13:39:31.829Z,42.43
2019-03-18T13:42:00.530Z,43.25
2019-03-18T13:44:32.268Z,41.70
2019-03-18T13:47:00.652Z,42.25
2019-03-18T13:49:29.129Z,44.53
2019-03-18T13:51:57.916Z,43.98
2019-03-18T13:54:26.112Z,45.33
2019-03-18T13:56:54.187Z,45.98
2019-03-18T13:59:22.873Z,47.03
2019-03-18T14:01:51.026Z,46.40
2019-03-18T14:04:19.510Z,45.65
2019-03-18T14:06:48.813Z,46.50
2019-03-18T14:09:16.983Z,45.15
2019-03-18T14:11:45.482Z,45.80
2019-03-18T14:14:13.643Z,46.10
2019-03-18T14:16:41.719Z,48.05
2019-03-18T14:19:10.117Z,45.50
2019-03-18T14:21:38.271Z,46.00
2019-03-18T14:24:08.804Z,45.73
2019-03-18T14:26:38.408Z,45.52
2019-03-18T14:29:07.203Z,45.20
2019-03-18T14:31:35.785Z,46.63
2019-03-18T14:34:03.856Z,45.73
2019-03-18T14:36:32.235Z,47.08
2019-03-18T14:39:00.937Z,45.50
2019-03-18T14:41:29.919Z,45.33
2019-03-18T14:44:01.999Z,46.88
2019-03-18T14:46:30.055Z,44.05
2019-03-18T14:48:58.540Z,43.90
2019-03-18T14:51:26.918Z,43.75
2019-03-18T14:53:55.297Z,45.55
2019-03-18T14:56:23.682Z,44.15
2019-03-18T14:58:52.263Z,43.58
2019-03-18T15:01:20.642Z,45.35
2019-03-18T15:03:48.817Z,43.92
2019-03-18T15:06:17.503Z,44.50
2019-03-18T15:08:46.868Z,44.73
2019-03-18T15:11:15.187Z,44.80
2019-03-18T15:13:43.782Z,44.23
2019-03-18T15:16:13.081Z,44.83
2019-03-18T15:18:41.250Z,42.85
2019-03-18T15:21:09.836Z,44.25
2019-03-18T15:23:43.438Z,44.10
2019-03-18T15:26:10.413Z,42.98
2019-03-18T15:28:38.868Z,41.48
2019-03-18T15:31:07.037Z,43.73
2019-03-18T15:33:35.518Z,42.88
2019-03-18T15:36:04.018Z,44.10
2019-03-18T15:38:32.075Z,41.53
2019-03-18T15:41:00.778Z,42.20
2019-03-18T15:43:29.155Z,41.83
2019-03-18T15:45:57.625Z,40.65
2019-03-18T15:48:25.699Z,41.05
2019-03-18T15:50:54.287Z,42.25
2019-03-18T15:53:33.432Z,41.98
2019-03-18T15:56:01.604Z,40.63
2019-03-18T15:58:31.017Z,39.85
2019-03-18T16:00:59.489Z,38.53
2019-03-18T16:03:28.980Z,39.08
2019-03-18T16:05:57.256Z,39.55
2019-03-18T16:08:25.329Z,41.42
2019-03-18T16:10:53.748Z,39.25
2019-03-18T16:13:22.191Z,39.50
2019-03-18T16:15:50.264Z,38.25
2019-03-18T16:18:19.775Z,38.88
2019-03-18T16:20:48.266Z,40.43
2019-03-18T16:23:16.636Z,39.20
2019-03-18T16:25:45.126Z,36.95
2019-03-18T16:28:13.705Z,38.02
2019-03-18T16:30:42.285Z,37.67
2019-03-18T16:33:10.678Z,37.38
2019-03-18T16:35:39.254Z,37.00
2019-03-18T16:38:07.649Z,36.88
2019-03-18T16:40:36.627Z,38.45
2019-03-18T16:43:05.207Z,36.30
2019-03-18T16:45:33.586Z,36.58
2019-03-18T16:48:02.378Z,36.35
2019-03-18T16:50:30.657Z,37.42
2019-03-18T16:52:59.281Z,36.50
2019-03-18T16:55:27.516Z,36.98
2019-03-18T16:57:56.103Z,37.40
2019-03-18T17:00:24.482Z,37.28
2019-03-18T17:02:52.865Z,38.90
2019-03-18T17:05:21.243Z,37.75
2019-03-18T17:07:49.830Z,36.73
2019-03-18T17:10:18.118Z,39.18
2019-03-18T17:12:49.157Z,36.55
2019-03-18T17:15:17.728Z,37.20
2019-03-18T17:17:45.903Z,34.73
2019-03-18T17:20:14.186Z,36.77
2019-03-18T17:22:48.860Z,37.83
2019-03-18T17:25:12.305Z,37.70
2019-03-18T17:27:40.549Z,35.30
2019-03-18T17:30:08.827Z,35.65
2019-03-18T17:32:37.208Z,34.92
2019-03-18T17:35:05.414Z,37.15
2019-03-18T17:37:33.967Z,36.03
2019-03-18T17:40:02.346Z,33.92
2019-03-18T17:42:30.737Z,34.27
2019-03-18T17:44:59.112Z,34.67
2019-03-18T17:47:28.000Z,34.38
2019-03-18T17:49:56.382Z,35.10
2019-03-18T17:52:24.757Z,34.00
2019-03-18T17:54:53.343Z,33.40
2019-03-18T17:57:24.593Z,36.35
2019-03-18T17:59:53.297Z,37.33
2019-03-18T18:02:21.454Z,35.30
2019-03-18T18:05:02.153Z,34.05
2019-03-18T18:07:21.079Z,35.25
2019-03-18T18:09:49.359Z,35.08
2019-03-18T18:12:17.736Z,34.53
2019-03-18T18:14:46.586Z,34.13
2019-03-18T18:17:14.618Z,34.40
2019-03-18T18:19:42.782Z,34.63
2019-03-18T18:22:11.573Z,33.65
2019-03-18T18:24:39.740Z,33.05
2019-03-18T18:27:08.359Z,33.88
2019-03-18T18:29:36.701Z,34.58
2019-03-18T18:32:04.982Z,33.60
2019-03-18T18:34:33.152Z,33.20
2019-03-18T18:37:02.319Z,34.38
2019-03-18T18:39:30.812Z,33.23
2019-03-18T18:41:59.011Z,33.30
2019-03-18T18:44:27.494Z,34.50
2019-03-18T18:46:55.667Z,35.23
2019-03-18T18:49:23.951Z,35.00
2019-03-18T18:51:52.529Z,33.90
2019-03-18T18:54:20.910Z,34.05
2019-03-18T18:56:49.396Z,35.25
2019-03-18T18:59:17.771Z,34.00
2019-03-18T19:01:46.151Z,34.30
2019-03-18T19:04:14.121Z,32.78
2019-03-18T19:06:42.914Z,33.00
2019-03-18T19:09:10.992Z,32.45
2019-03-18T19:11:39.362Z,33.58
2019-03-18T19:14:07.653Z,33.02
2019-03-18T19:16:35.715Z,33.90
2019-03-18T19:19:04.195Z,33.78
2019-03-18T19:21:32.370Z,33.55
2019-03-18T19:24:00.750Z,33.48
2019-03-18T19:26:28.824Z,33.25
2019-03-18T19:28:57.628Z,33.90
2019-03-18T19:31:25.688Z,31.85
2019-03-18T19:33:54.171Z,33.30
2019-03-18T19:36:22.657Z,34.63
2019-03-18T19:38:50.762Z,32.23
2019-03-18T19:41:18.900Z,33.95
2019-03-18T19:43:47.277Z,32.90
2019-03-18T19:46:15.556Z,33.92
2019-03-18T19:48:44.141Z,32.40
2019-03-18T19:51:12.622Z,32.05
2019-03-18T19:53:48.652Z,33.48
2019-03-18T19:56:10.204Z,34.23
2019-03-18T19:58:38.272Z,32.98
2019-03-18T20:01:07.576Z,32.73
2019-03-18T20:03:37.646Z,33.02
2019-03-18T20:06:05.257Z,32.93
2019-03-18T20:08:33.433Z,32.93
2019-03-18T20:11:01.613Z,32.83
2019-03-18T20:13:30.191Z,33.10
2019-03-18T20:15:58.367Z,31.82
2019-03-18T20:18:26.542Z,32.78
2019-03-18T20:20:56.845Z,33.20
2019-03-18T20:23:24.323Z,32.48
2019-03-18T20:25:52.707Z,32.50
2019-03-18T20:28:21.392Z,33.60
2019-03-18T20:30:50.697Z,32.53
2019-03-18T20:33:19.075Z,32.28
2019-03-18T20:35:47.663Z,32.03
2019-03-18T20:38:16.140Z,34.50
2019-03-18T20:40:44.622Z,34.20
2019-03-18T20:43:13.411Z,33.15
2019-03-18T20:45:41.588Z,33.33
2019-03-18T20:48:10.068Z,33.10
2019-03-18T20:50:38.550Z,32.93
2019-03-18T20:53:07.240Z,31.42
2019-03-18T20:55:35.619Z,33.20
2019-03-18T20:58:03.895Z,31.93
2019-03-18T21:00:31.864Z,31.07
2019-03-18T21:03:00.142Z,31.62
2019-03-18T21:05:28.528Z,31.33
2019-03-18T21:07:56.699Z,32.55
2019-03-18T21:10:24.775Z,31.75
2019-03-18T21:12:53.458Z,31.75
2019-03-18T21:15:21.738Z,31.68
2019-03-18T21:17:49.963Z,31.62
2019-03-18T21:20:18.187Z,32.23
2019-03-18T21:22:46.568Z,32.10
2019-03-18T21:25:14.742Z,31.77
2019-03-18T21:27:43.121Z,30.75
2019-03-18T21:30:11.195Z,31.62
2019-03-18T21:32:39.573Z,32.50
2019-03-18T21:35:08.055Z,32.23
2019-03-18T21:37:36.444Z,30.82
2019-03-18T21:40:04.818Z,30.85
2019-03-18T21:42:32.901Z,33.25
2019-03-18T21:45:01.166Z,31.65
2019-03-18T21:47:30.059Z,30.72
2019-03-18T21:49:58.650Z,30.50
2019-03-18T21:52:26.620Z,32.17
2019-03-18T21:54:55.095Z,30.82
2019-03-18T21:57:23.373Z,29.80
2019-03-18T21:59:51.919Z,30.95
2019-03-18T22:02:20.439Z,31.12
2019-03-18T22:04:49.024Z,29.98
2019-03-18T22:07:17.405Z,29.75
2019-03-18T22:09:45.614Z,30.43
2019-03-18T22:12:13.860Z,29.65
2019-03-18T22:14:42.030Z,31.85
2019-03-18T22:17:10.532Z,29.70
2019-03-18T22:19:38.792Z,30.88
2019-03-18T22:22:06.949Z,31.23
2019-03-18T22:24:44.774Z,31.02
2019-03-18T22:27:04.851Z,30.43
2019-03-18T22:29:33.027Z,29.35
2019-03-18T22:32:01.101Z,30.60
2019-03-18T22:34:29.786Z,28.70
2019-03-18T22:36:57.962Z,30.00
2019-03-18T22:39:26.551Z,30.25
2019-03-18T22:41:54.823Z,28.75
2019-03-18T22:44:23.307Z,29.65
2019-03-18T22:46:51.381Z,29.85
2019-03-18T22:49:20.177Z,29.50
2019-03-18T22:51:48.241Z,29.60
2019-03-18T22:54:17.550Z,31.20
2019-03-18T22:56:46.230Z,28.65
2019-03-18T22:59:14.302Z,31.00
2019-03-18T23:01:42.890Z,30.08
2019-03-18T23:04:11.066Z,29.30
2019-03-18T23:06:39.544Z,30.27
2019-03-18T23:09:07.934Z,29.12
2019-03-18T23:11:36.515Z,29.27
2019-03-18T23:14:04.709Z,30.68
2019-03-18T23:16:32.859Z,29.72
2019-03-18T23:19:01.754Z,29.30
2019-03-18T23:21:30.036Z,29.92
2019-03-18T23:23:58.410Z,30.55
2019-03-18T23:26:28.324Z,29.40
2019-03-18T23:28:56.807Z,30.40
2019-03-18T23:31:25.516Z,29.57
2019-03-18T23:33:54.088Z,30.70
2019-03-18T23:36:22.357Z,30.60
2019-03-18T23:38:50.944Z,30.68
2019-03-18T23:41:19.117Z,30.55
2019-03-18T23:43:47.393Z,30.08
2019-03-18T23:46:15.673Z,28.95
2019-03-18T23:48:43.951Z,29.42
2019-03-18T23:51:11.920Z,30.75
2019-03-18T23:53:40.399Z,31.87
2019-03-18T23:56:08.984Z,29.15
2019-03-18T23:58:37.260Z,30.52
